Time;durP1;ratioP1;P1;durP2;ratioP2;P2;SDS_P1;SDS_P2;PMS_P1;PMS_P2;Temp;Humidity;BMP_temperature;BMP_pressure;BME280_temperature;BME280_humidity;BME280_pressure;Samples;Min_cycle;Max_cycle;Signal;HPM_P1;HPM_P2
2022/11/07 00:02:13;;;;;;;17.83;2.60;;;;;;;8.42;100.00;98213.13;4889890;29;20045;-89
2022/11/07 00:04:40;;;;;;;21.58;3.17;;;;;;;8.43;100.00;98207.66;4878190;29;20698;-89
2022/11/07 00:07:09;;;;;;;19.35;3.25;;;;;;;8.47;100.00;98202.84;4859653;29;20049;-88
2022/11/07 00:09:37;;;;;;;21.90;3.53;;;;;;;8.49;100.00;98206.09;4872824;29;20075;-88
2022/11/07 00:12:05;;;;;;;17.95;3.08;;;;;;;8.50;100.00;98207.75;4874094;29;20041;-89
2022/11/07 00:14:33;;;;;;;20.75;3.83;;;;;;;8.51;100.00;98208.53;4903805;29;20041;-89
2022/11/07 00:17:02;;;;;;;25.60;2.97;;;;;;;8.55;100.00;98205.38;4894486;29;20040;-89
2022/11/07 00:19:29;;;;;;;15.50;2.60;;;;;;;8.58;100.00;98201.56;4862096;29;20077;-90
2022/11/07 00:21:57;;;;;;;24.33;3.33;;;;;;;8.61;100.00;98206.47;4893339;29;20048;-88
2022/11/07 00:24:25;;;;;;;17.48;2.85;;;;;;;8.65;100.00;98188.44;4878325;29;20025;-89
2022/11/07 00:26:53;;;;;;;22.33;3.70;;;;;;;8.65;100.00;98184.00;4853918;29;20120;-88
2022/11/07 00:29:21;;;;;;;22.40;4.07;;;;;;;8.71;100.00;98190.38;4871575;29;20502;-88
2022/11/07 00:31:49;;;;;;;18.30;2.78;;;;;;;8.75;100.00;98186.34;4876212;29;20099;-87
2022/11/07 00:34:17;;;;;;;23.67;3.15;;;;;;;8.77;100.00;98186.16;4874995;29;20086;-88
2022/11/07 00:36:45;;;;;;;26.83;3.50;;;;;;;8.80;100.00;98176.06;4877049;29;20421;-88
2022/11/07 00:39:12;;;;;;;22.48;3.05;;;;;;;8.82;100.00;98178.50;4858176;29;20065;-89
2022/11/07 00:41:40;;;;;;;22.48;3.97;;;;;;;8.87;100.00;98172.66;4841753;29;20047;-90
2022/11/07 00:44:08;;;;;;;22.10;3.22;;;;;;;8.86;100.00;98173.66;4862594;29;20028;-90
2022/11/07 00:46:37;;;;;;;20.15;3.72;;;;;;;8.89;100.00;98171.47;4891680;29;20102;-88
2022/11/07 00:49:04;;;;;;;19.45;3.63;;;;;;;8.90;100.00;98167.00;4878043;29;20045;-88
2022/11/07 00:51:32;;;;;;;23.08;2.60;;;;;;;8.90;100.00;98167.81;4875685;29;20088;-92
2022/11/07 00:54:03;;;;;;;20.95;3.30;;;;;;;8.89;100.00;98158.28;4862509;29;20131;-90
2022/11/07 00:56:33;;;;;;;15.63;2.83;;;;;;;8.88;100.00;98154.03;4876888;29;20037;-91
2022/11/07 00:59:03;;;;;;;12.80;2.47;;;;;;;8.89;100.00;98150.38;4848382;29;20546;-90
2022/11/07 01:01:34;;;;;;;27.52;3.30;;;;;;;8.89;100.00;98155.66;4880696;29;20065;-90
2022/11/07 01:06:52;;;;;;;21.17;2.83;;;;;;;8.94;100.00;98147.19;4864182;29;20037;-89
2022/11/07 01:09:22;;;;;;;20.67;3.47;;;;;;;8.98;100.00;98145.78;4848211;29;20490;-89
2022/11/07 01:11:52;;;;;;;18.10;2.97;;;;;;;9.01;100.00;98134.88;4862583;29;20077;-90
2022/11/07 01:14:22;;;;;;;14.52;2.88;;;;;;;9.05;100.00;98120.31;4862168;29;20127;-90
2022/11/07 01:16:52;;;;;;;16.65;2.47;;;;;;;9.08;100.00;98119.09;4856782;29;20075;-89
2022/11/07 01:19:22;;;;;;;18.70;2.58;;;;;;;9.08;100.00;98119.09;4876685;29;20067;-90
2022/11/07 01:21:52;;;;;;;25.50;3.30;;;;;;;9.10;100.00;98117.09;4862849;29;20058;-90
2022/11/07 01:24:22;;;;;;;16.80;3.28;;;;;;;9.10;100.00;98125.00;4866511;29;20163;-89
2022/11/07 01:26:51;;;;;;;19.95;3.40;;;;;;;9.13;100.00;98121.16;4863147;29;20092;-91
2022/11/07 01:29:19;;;;;;;19.00;3.30;;;;;;;9.19;100.00;98112.47;4866393;29;20050;-90
2022/11/07 01:31:47;;;;;;;23.15;3.25;;;;;;;9.27;100.00;98112.34;4908372;29;20116;-90
2022/11/07 01:34:16;;;;;;;19.73;3.42;;;;;;;9.35;100.00;98115.84;4866552;29;20036;-90
2022/11/07 01:36:44;;;;;;;20.60;3.45;;;;;;;9.46;100.00;98111.84;4851933;29;20389;-90
2022/11/07 01:39:12;;;;;;;16.33;2.72;;;;;;;9.51;100.00;98104.97;4878800;29;20127;-89
2022/11/07 01:41:40;;;;;;;23.00;3.55;;;;;;;9.54;100.00;98115.13;4881187;29;20590;-90
2022/11/07 01:44:07;;;;;;;19.55;3.35;;;;;;;9.59;100.00;98105.81;4850555;29;20031;-89
2022/11/07 01:46:41;;;;;;;30.33;3.92;;;;;;;9.62;100.00;98108.06;4897250;29;20040;-90
2022/11/07 01:49:44;;;;;;;25.75;2.92;;;;;;;9.65;100.00;98105.81;4897000;29;20060;-90
2022/11/07 01:52:15;;;;;;;23.70;4.90;;;;;;;9.71;100.00;98085.78;4833213;29;20040;-89
2022/11/07 01:54:49;;;;;;;26.63;3.90;;;;;;;9.74;100.00;98095.94;4880965;29;20083;-90
2022/11/07 01:57:27;;;;;;;25.30;3.95;;;;;;;9.82;100.00;98102.88;4882835;29;20052;-90
2022/11/07 02:00:01;;;;;;;29.45;3.80;;;;;;;9.85;100.00;98099.00;4878898;29;20448;-91
2022/11/07 02:02:34;;;;;;;20.45;3.35;;;;;;;9.86;100.00;98095.38;4896090;29;20118;-90
2022/11/07 02:05:05;;;;;;;36.25;3.45;;;;;;;9.92;100.00;98105.94;4881289;29;20096;-88
2022/11/07 02:07:37;;;;;;;20.23;3.15;;;;;;;9.96;100.00;98100.25;4865381;29;20135;-90
2022/11/07 02:10:08;;;;;;;28.20;3.30;;;;;;;9.97;100.00;98088.72;4876030;29;20041;-89
2022/11/07 02:12:38;;;;;;;22.73;3.13;;;;;;;9.98;100.00;98080.59;4882721;29;20115;-91
2022/11/07 02:15:09;;;;;;;19.42;2.90;;;;;;;10.00;100.00;98078.53;4868276;29;20051;-92
2022/11/07 02:17:38;;;;;;;28.80;3.22;;;;;;;10.00;100.00;98078.53;4877037;29;20045;-91
2022/11/07 02:20:07;;;;;;;27.05;3.42;;;;;;;10.03;100.00;98069.44;4846492;29;20084;-91
2022/11/07 02:22:57;;;;;;;24.80;3.13;;;;;;;10.04;100.00;98077.16;4882882;29;20040;-91
2022/11/07 02:25:26;;;;;;;23.63;3.45;;;;;;;10.05;100.00;98077.94;4872210;29;20042;-92
2022/11/07 02:27:58;;;;;;;28.42;4.20;;;;;;;10.09;100.00;98070.44;4896007;29;20052;-88
2022/11/07 02:30:33;;;;;;;18.50;2.97;;;;;;;10.13;100.00;98066.41;4851697;29;20041;-89
2022/11/07 02:33:01;;;;;;;19.08;3.15;;;;;;;10.12;100.00;98062.94;4861053;29;20036;-88
2022/11/07 02:35:32;;;;;;;22.92;2.97;;;;;;;10.17;100.00;98062.34;4876820;29;20033;-88
2022/11/07 02:38:04;;;;;;;19.17;3.40;;;;;;;10.22;100.00;98057.28;4889347;29;20048;-88
2022/11/07 02:40:33;;;;;;;15.95;3.25;;;;;;;10.25;100.00;98050.78;4861794;29;20104;-89
2022/11/07 02:43:01;;;;;;;16.55;2.80;;;;;;;10.28;100.00;98047.75;4845736;29;20044;-89
2022/11/07 02:45:36;;;;;;;22.90;3.30;;;;;;;10.29;100.00;98052.81;4848304;29;20558;-88
2022/11/07 02:48:05;;;;;;;18.92;3.08;;;;;;;10.33;100.00;98042.66;4903277;29;20036;-89
2022/11/07 02:50:32;;;;;;;27.08;3.28;;;;;;;10.32;100.00;98046.31;4861917;29;20037;-90
2022/11/07 02:53:00;;;;;;;21.95;2.80;;;;;;;10.34;100.00;98038.19;4861941;29;20045;-90
2022/11/07 02:55:28;;;;;;;24.00;3.13;;;;;;;10.35;100.00;98030.06;4879382;29;20040;-90
2022/11/07 02:57:56;;;;;;;14.40;2.83;;;;;;;10.36;100.00;98023.78;4849182;29;20037;-89
2022/11/07 03:00:24;;;;;;;18.92;3.42;;;;;;;10.40;100.00;98024.19;4864771;29;20104;-89
2022/11/07 03:02:51;;;;;;;22.95;2.75;;;;;;;10.42;100.00;98036.16;4844252;29;20045;-90
2022/11/07 03:05:20;;;;;;;16.92;2.17;;;;;;;10.42;100.00;98022.16;4864884;29;20048;-91
2022/11/07 03:07:49;;;;;;;24.08;2.97;;;;;;;10.45;100.00;98005.09;4896095;29;20033;-90
2022/11/07 03:10:18;;;;;;;16.33;2.08;;;;;;;10.47;100.00;98016.28;4867007;29;20048;-88
2022/11/07 03:12:46;;;;;;;15.23;2.65;;;;;;;10.48;100.00;98007.34;4875307;29;20039;-91
2022/11/07 03:15:15;;;;;;;17.17;2.13;;;;;;;10.47;100.00;98006.53;4895311;29;20071;-92
2022/11/07 03:17:41;;;;;;;13.45;2.45;;;;;;;10.50;100.00;98005.31;4879590;29;20041;-88
2022/11/07 03:20:11;;;;;;;15.35;2.60;;;;;;;10.53;100.00;98007.53;4862044;29;20573;-89
2022/11/07 03:22:41;;;;;;;15.98;2.83;;;;;;;10.56;100.00;98017.69;4863791;29;20491;-88
2022/11/07 03:25:11;;;;;;;21.20;3.42;;;;;;;10.58;100.00;98007.75;4860091;29;20037;-88
2022/11/07 03:27:50;;;;;;;23.25;2.97;;;;;;;10.59;100.00;98009.34;4848467;29;20100;-89
2022/11/07 03:30:20;;;;;;;16.88;2.97;;;;;;;10.60;100.00;98004.91;4878813;29;20127;-88
2022/11/07 03:32:53;;;;;;;17.38;2.75;;;;;;;10.64;100.00;97998.19;4845685;29;20048;-88
2022/11/07 03:35:22;;;;;;;28.95;3.17;;;;;;;10.64;100.00;98003.47;4878229;29;20147;-89
2022/11/07 03:37:51;;;;;;;23.55;2.70;;;;;;;10.67;100.00;97997.78;4862051;29;20101;-92
2022/11/07 03:40:18;;;;;;;29.08;3.70;;;;;;;10.64;100.00;97999.00;4849353;29;20041;-92
2022/11/07 03:42:46;;;;;;;26.33;3.80;;;;;;;10.67;100.00;97993.31;4896861;29;20032;-89
2022/11/07 03:45:16;;;;;;;20.33;3.00;;;;;;;10.66;100.00;97994.34;4844773;29;20038;-87
2022/11/07 03:47:47;;;;;;;21.67;4.45;;;;;;;10.70;100.00;97994.75;4861886;29;20394;-94
2022/11/07 03:50:18;;;;;;;15.50;2.65;;;;;;;10.72;100.00;97986.59;4880610;29;20041;-92
2022/11/07 03:52:47;;;;;;;28.60;3.83;;;;;;;10.72;100.00;97976.03;4879314;29;20055;-88
2022/11/07 03:55:17;;;;;;;20.67;3.40;;;;;;;10.75;100.00;97981.69;4891623;29;20447;-88
2022/11/07 03:57:47;;;;;;;29.58;4.13;;;;;;;10.77;100.00;97979.69;4869079;29;20024;-89
2022/11/07 04:00:17;;;;;;;18.50;3.05;;;;;;;10.78;100.00;97975.22;4846835;29;20045;-87
2022/11/07 04:02:47;;;;;;;19.40;4.00;;;;;;;10.82;100.00;97978.22;4894543;29;20047;-89
2022/11/07 04:05:16;;;;;;;31.35;4.45;;;;;;;10.81;100.00;97977.44;4893594;29;20040;-88
2022/11/07 04:07:44;;;;;;;27.38;4.05;;;;;;;10.82;100.00;97972.94;4890574;29;20040;-88
2022/11/07 04:10:12;;;;;;;21.60;3.78;;;;;;;10.88;100.00;97974.75;4877290;29;20432;-89
2022/11/07 04:18:17;;;;;;;23.40;3.67;;;;;;;10.89;100.00;97957.91;4865033;29;20071;-92
2022/11/07 04:20:47;;;;;;;23.10;3.40;;;;;;;10.90;100.00;97952.41;4860767;29;20054;-92
2022/11/07 04:23:16;;;;;;;21.10;3.60;;;;;;;10.89;100.00;97958.69;4864895;29;20041;-92
2022/11/07 04:28:31;;;;;;;28.63;4.47;;;;;;;10.91;100.00;97953.19;4863558;29;20398;-92
2022/11/07 04:30:59;;;;;;;23.63;4.22;;;;;;;10.94;100.00;97952.78;4893955;29;20074;-91
2022/11/07 04:33:27;;;;;;;19.83;3.45;;;;;;;10.92;100.00;97952.19;4863840;29;20052;-89
2022/11/07 04:35:54;;;;;;;28.27;4.20;;;;;;;10.96;100.00;97944.66;4878739;29;20124;-88
2022/11/07 04:38:22;;;;;;;25.33;5.32;;;;;;;10.97;100.00;97948.94;4863756;29;20044;-88
2022/11/07 04:40:53;;;;;;;26.67;4.47;;;;;;;11.00;100.00;97961.72;4847987;29;20506;-88
2022/11/07 04:43:21;;;;;;;29.27;4.45;;;;;;;11.02;100.00;97957.06;4890905;29;20041;-88
2022/11/07 04:45:49;;;;;;;19.13;3.35;;;;;;;11.06;100.00;97955.59;4867126;29;20037;-89
2022/11/07 04:48:17;;;;;;;31.35;3.78;;;;;;;11.04;100.00;97952.34;4863168;29;20131;-90
2022/11/07 04:50:45;;;;;;;28.83;4.80;;;;;;;11.09;100.00;97954.34;4847803;29;20487;-89
2022/11/07 04:53:16;;;;;;;27.63;4.40;;;;;;;11.07;100.00;97949.28;4848755;29;20039;-91
2022/11/07 04:55:44;;;;;;;25.95;4.18;;;;;;;11.07;100.00;97953.78;4864771;29;20045;-91
2022/11/07 04:58:11;;;;;;;23.30;3.60;;;;;;;11.07;100.00;97944.00;4864248;29;20040;-90
2022/11/07 05:00:39;;;;;;;26.92;3.92;;;;;;;11.10;100.00;97929.56;4894126;29;20116;-89
2022/11/07 05:03:07;;;;;;;27.67;4.00;;;;;;;11.09;100.00;97935.84;4853425;29;20038;-89
2022/11/07 05:05:35;;;;;;;25.55;4.13;;;;;;;11.13;100.00;97939.72;4875149;29;20070;-89
2022/11/07 05:08:02;;;;;;;27.77;4.32;;;;;;;11.14;100.00;97944.78;4886878;29;20040;-88
2022/11/07 05:10:30;;;;;;;28.00;4.88;;;;;;;11.17;100.00;97954.13;4876625;29;20499;-88
2022/11/07 05:12:58;;;;;;;26.20;4.38;;;;;;;11.18;100.00;97931.94;4876664;29;20096;-88
2022/11/07 05:15:26;;;;;;;29.02;4.55;;;;;;;11.20;100.00;97931.72;4860842;29;20041;-89
2022/11/07 05:17:54;;;;;;;32.42;4.05;;;;;;;11.19;100.00;97940.69;4848185;29;20044;-92
2022/11/07 05:20:31;;;;;;;23.65;3.92;;;;;;;11.22;100.00;97938.47;4878017;29;20571;-93
2022/11/07 05:23:13;;;;;;;21.48;3.88;;;;;;;11.24;100.00;97933.78;4847663;29;20196;-89
2022/11/07 05:25:43;;;;;;;26.98;4.40;;;;;;;11.21;100.00;97936.03;4869822;29;20116;-88
2022/11/07 05:28:13;;;;;;;30.52;4.93;;;;;;;11.23;100.00;97936.59;4861690;29;20410;-89
2022/11/07 05:30:41;;;;;;;31.38;4.32;;;;;;;11.22;100.00;97932.34;4859550;29;20045;-88
2022/11/07 05:33:12;;;;;;;25.17;3.70;;;;;;;11.22;100.00;97932.34;4880351;29;20047;-91
2022/11/07 05:35:40;;;;;;;22.42;3.85;;;;;;;11.23;100.00;97936.59;4858548;29;20064;-92
2022/11/07 05:38:08;;;;;;;25.80;4.57;;;;;;;11.25;100.00;97931.94;4857708;29;20040;-90
2022/11/07 05:40:37;;;;;;;21.88;3.85;;;;;;;11.22;100.00;97927.88;4858345;29;20516;-89
2022/11/07 05:43:08;;;;;;;18.42;3.20;;;;;;;11.25;100.00;97930.09;4846061;29;20070;-87
2022/11/07 05:45:37;;;;;;;17.58;3.28;;;;;;;11.24;100.00;97923.19;4861850;29;20064;-89
2022/11/07 05:48:12;;;;;;;23.83;3.97;;;;;;;11.29;100.00;97922.56;4861721;29;20525;-89
2022/11/07 05:50:40;;;;;;;18.83;2.83;;;;;;;11.26;100.00;97915.84;4842673;29;20047;-89
2022/11/07 05:53:08;;;;;;;19.65;4.15;;;;;;;11.33;100.00;97915.00;4884419;29;20120;-88
2022/11/07 05:55:36;;;;;;;16.77;3.20;;;;;;;11.33;100.00;97917.63;4862101;29;20088;-88
2022/11/07 05:58:11;;;;;;;15.73;3.28;;;;;;;11.38;100.00;97923.94;4853042;29;20576;-92
2022/11/07 06:00:41;;;;;;;20.85;3.67;;;;;;;11.39;100.00;97922.91;4853474;29;20048;-93
2022/11/07 06:03:12;;;;;;;20.65;3.08;;;;;;;11.39;100.00;97925.53;4856067;29;20458;-94
2022/11/07 06:05:43;;;;;;;15.77;2.65;;;;;;;11.45;100.00;97920.44;4872599;29;20514;-93
2022/11/07 06:08:12;;;;;;;17.23;3.53;;;;;;;11.45;100.00;97925.72;4874847;29;20041;-88
2022/11/07 06:10:42;;;;;;;16.05;3.17;;;;;;;11.44;100.00;97914.31;4843250;29;20101;-89
2022/11/07 06:13:13;;;;;;;18.40;3.17;;;;;;;11.48;100.00;97917.38;4860633;29;20037;-87
2022/11/07 06:15:41;;;;;;;13.60;3.20;;;;;;;11.47;100.00;97919.19;4873242;29;20057;-89
2022/11/07 06:18:14;;;;;;;18.80;3.05;;;;;;;11.47;100.00;97924.47;4859181;29;20452;-88
2022/11/07 06:20:44;;;;;;;18.05;3.47;;;;;;;11.49;100.00;97921.63;4877988;29;20062;-89
2022/11/07 06:23:15;;;;;;;16.48;3.15;;;;;;;11.49;100.00;97918.97;4850127;29;20041;-87
2022/11/07 06:25:44;;;;;;;22.40;3.78;;;;;;;11.49;100.00;97911.03;4837133;29;20450;-89
2022/11/07 06:28:14;;;;;;;19.50;3.97;;;;;;;11.52;100.00;97924.66;4863664;29;20085;-91
2022/11/07 06:30:42;;;;;;;26.35;4.45;;;;;;;11.51;100.00;97917.75;4862457;29;20093;-92
2022/11/07 06:33:14;;;;;;;16.08;3.25;;;;;;;11.56;100.00;97914.47;4846275;29;20089;-88
2022/11/07 06:35:42;;;;;;;21.00;3.92;;;;;;;11.52;100.00;97922.03;4875314;29;20049;-88
2022/11/07 06:38:14;;;;;;;21.33;4.45;;;;;;;11.56;100.00;97911.84;4874219;29;20045;-92
2022/11/07 06:40:43;;;;;;;21.05;4.35;;;;;;;11.58;100.00;97916.91;4862801;29;20084;-90
2022/11/07 06:43:16;;;;;;;26.20;4.15;;;;;;;11.58;100.00;97915.06;4844094;29;20116;-89
2022/11/07 06:45:47;;;;;;;24.40;4.15;;;;;;;11.60;100.00;97922.78;4842592;29;20040;-88
2022/11/07 06:48:17;;;;;;;26.88;5.45;;;;;;;11.60;100.00;97914.84;4862615;29;20041;-92
2022/11/07 06:50:47;;;;;;;28.98;4.85;;;;;;;11.58;100.00;97911.63;4866474;29;20033;-92
2022/11/07 06:53:16;;;;;;;24.00;3.95;;;;;;;11.59;100.00;97915.88;4845690;29;20052;-88
2022/11/07 06:55:45;;;;;;;25.08;4.32;;;;;;;11.60;100.00;97909.53;4860083;29;20033;-88
2022/11/07 06:58:13;;;;;;;21.15;3.92;;;;;;;11.60;100.00;97917.47;4872748;29;20037;-88
2022/11/07 07:00:43;;;;;;;22.95;4.05;;;;;;;11.63;100.00;97919.69;4853424;29;20120;-88
2022/11/07 07:03:13;;;;;;;20.83;3.95;;;;;;;11.62;100.00;97916.25;4841137;29;20037;-89
2022/11/07 07:05:43;;;;;;;34.28;5.20;;;;;;;11.63;100.00;97906.47;4875458;29;20090;-88
2022/11/07 07:08:13;;;;;;;31.92;4.63;;;;;;;11.60;100.00;97914.84;4842414;29;20041;-91
2022/11/07 07:10:45;;;;;;;26.48;4.03;;;;;;;11.60;100.00;97905.06;4861194;29;20097;-92
2022/11/07 07:13:15;;;;;;;32.83;5.72;;;;;;;11.60;100.00;97918.31;4859574;29;20142;-88
2022/11/07 07:15:53;;;;;;;32.70;6.05;;;;;;;11.59;100.00;97905.28;4872240;29;20098;-88
2022/11/07 07:18:25;;;;;;;30.20;5.10;;;;;;;11.58;100.00;97911.63;4861807;29;20033;-92
2022/11/07 07:21:09;;;;;;;41.83;5.13;;;;;;;11.58;100.00;97908.97;4891828;29;20131;-89
2022/11/07 07:23:39;;;;;;;29.58;4.88;;;;;;;11.53;100.00;97918.34;4880622;29;20080;-91
2022/11/07 07:26:14;;;;;;;29.85;4.63;;;;;;;11.53;100.00;97918.34;4864136;29;20044;-90
2022/11/07 07:28:44;;;;;;;31.58;5.85;;;;;;;11.56;100.00;97925.06;4867889;29;20037;-89
2022/11/07 07:31:13;;;;;;;26.60;5.03;;;;;;;11.53;100.00;97920.19;4878677;29;20382;-88
2022/11/07 07:33:47;;;;;;;34.90;5.60;;;;;;;11.52;100.00;97916.72;4878770;29;20037;-89
2022/11/07 07:36:15;;;;;;;26.58;5.03;;;;;;;11.51;100.00;97907.19;4864986;29;20398;-90
2022/11/07 07:38:44;;;;;;;27.98;4.75;;;;;;;11.57;100.00;97912.63;4871724;29;20066;-90
2022/11/07 07:41:12;;;;;;;30.48;4.68;;;;;;;11.57;100.00;97925.84;4894853;29;20534;-91
2022/11/07 07:43:39;;;;;;;35.70;6.43;;;;;;;11.59;100.00;97926.44;4865045;29;20116;-89
2022/11/07 07:46:08;;;;;;;33.30;5.28;;;;;;;11.59;100.00;97923.81;4880439;29;20033;-91
2022/11/07 07:48:37;;;;;;;28.50;5.93;;;;;;;11.59;100.00;97924.63;4860794;29;20037;-89
2022/11/07 07:51:05;;;;;;;37.50;5.80;;;;;;;11.59;100.00;97929.91;4864354;29;20033;-90
2022/11/07 07:53:33;;;;;;;26.98;5.35;;;;;;;11.59;100.00;97932.56;4883709;29;20132;-89
2022/11/07 07:56:04;;;;;;;33.38;5.30;;;;;;;11.60;100.00;97933.34;4895698;29;20557;-89
2022/11/07 07:58:32;;;;;;;29.27;4.53;;;;;;;11.60;100.00;97933.34;4893058;29;20443;-89
2022/11/07 08:01:00;;;;;;;28.55;4.47;;;;;;;11.62;100.00;97949.84;4888903;29;20037;-88
2022/11/07 08:03:28;;;;;;;26.42;5.25;;;;;;;11.62;100.00;97950.66;4867059;29;20394;-88
2022/11/07 08:05:58;;;;;;;31.10;5.30;;;;;;;11.64;100.00;97956.53;4864122;29;20062;-89
2022/11/07 08:08:28;;;;;;;29.40;4.90;;;;;;;11.67;100.00;97950.03;4864859;29;20045;-90
2022/11/07 08:11:03;;;;;;;29.35;4.53;;;;;;;11.65;100.00;97955.53;4838054;29;20513;-90
2022/11/07 08:13:33;;;;;;;27.88;4.03;;;;;;;11.63;100.00;97948.81;4861809;29;20045;-89
2022/11/07 08:16:06;;;;;;;20.92;4.18;;;;;;;11.66;100.00;97953.66;4878088;29;20070;-90
2022/11/07 08:18:38;;;;;;;18.73;3.60;;;;;;;11.65;100.00;97946.75;4891110;29;20043;-90
2022/11/07 08:21:09;;;;;;;29.45;3.70;;;;;;;11.66;100.00;97951.03;4881789;29;20051;-91
2022/11/07 08:23:38;;;;;;;16.63;3.30;;;;;;;11.69;100.00;97965.69;4878233;29;20028;-89
2022/11/07 08:26:08;;;;;;;16.40;3.35;;;;;;;11.70;100.00;97969.94;4893987;29;20037;-90
2022/11/07 08:28:40;;;;;;;11.27;2.55;;;;;;;11.72;100.00;97968.69;4846805;29;20053;-90
2022/11/07 08:31:13;;;;;;;11.18;2.10;;;;;;;11.74;100.00;97965.84;4879165;29;20047;-91
2022/11/07 08:33:43;;;;;;;14.50;2.40;;;;;;;11.74;100.00;97974.59;4897477;29;20521;-90
2022/11/07 08:36:13;;;;;;;16.00;2.40;;;;;;;11.74;100.00;97966.66;4894463;29;20040;-91
2022/11/07 08:38:43;;;;;;;13.55;3.60;;;;;;;11.73;100.00;97967.69;4863641;29;20059;-92
2022/11/07 08:41:13;;;;;;;13.15;2.25;;;;;;;11.74;100.00;97969.28;4884006;29;20489;-90
2022/11/07 08:43:43;;;;;;;13.27;2.25;;;;;;;11.71;100.00;97972.38;4879111;29;20096;-89
2022/11/07 08:46:12;;;;;;;13.98;2.85;;;;;;;11.75;100.00;97975.41;4883585;29;20132;-90
2022/11/07 08:48:42;;;;;;;12.40;2.47;;;;;;;11.75;100.00;97973.56;4862717;29;20048;-91
2022/11/07 08:51:12;;;;;;;12.85;2.75;;;;;;;11.74;100.00;97974.59;4897671;29;20040;-92
2022/11/07 08:53:42;;;;;;;15.38;3.20;;;;;;;11.81;100.00;97979.03;4863458;29;20033;-91
2022/11/07 08:56:12;;;;;;;18.17;3.33;;;;;;;11.82;100.00;97970.88;4883085;29;20036;-90
2022/11/07 08:58:42;;;;;;;19.83;3.05;;;;;;;11.82;100.00;97972.72;4862392;29;20530;-91
2022/11/07 09:01:10;;;;;;;19.20;3.28;;;;;;;11.83;100.00;97977.00;4878148;29;20482;-91
2022/11/07 09:03:39;;;;;;;26.58;4.50;;;;;;;11.86;100.00;97979.22;4859928;29;20041;-91
2022/11/07 09:06:07;;;;;;;19.50;3.55;;;;;;;11.88;100.00;97977.97;4847026;29;20037;-90
2022/11/07 09:08:35;;;;;;;24.67;4.93;;;;;;;11.90;100.00;97967.97;4877290;29;20049;-89
2022/11/07 09:11:04;;;;;;;16.25;3.15;;;;;;;11.94;100.00;97970.19;4893745;29;20041;-90
2022/11/07 09:13:34;;;;;;;22.90;3.72;;;;;;;11.93;100.00;97974.66;4862992;29;20045;-90
2022/11/07 09:16:05;;;;;;;19.98;3.33;;;;;;;12.00;100.00;97972.81;4894489;29;20510;-90
2022/11/07 09:18:34;;;;;;;18.50;3.28;;;;;;;12.00;100.00;97964.84;4876719;29;20124;-90
2022/11/07 09:21:02;;;;;;;22.75;3.28;;;;;;;11.99;100.00;97965.06;4875647;29;20061;-91
2022/11/07 09:23:29;;;;;;;25.42;4.10;;;;;;;12.06;100.00;97960.53;4862946;29;20052;-89
2022/11/07 09:26:00;;;;;;;21.70;3.92;;;;;;;12.18;100.00;97943.97;4847016;29;20100;-90
2022/11/07 09:28:30;;;;;;;40.70;5.75;;;;;;;12.22;100.00;97932.72;4874129;29;20120;-89
2022/11/07 09:31:01;;;;;;;25.23;5.13;;;;;;;12.24;100.00;97924.56;4876863;29;20960;-90
2022/11/07 09:33:29;;;;;;;26.95;5.18;;;;;;;12.24;100.00;97938.63;4862777;29;20041;-90
2022/11/07 09:35:59;;;;;;;24.70;4.07;;;;;;;12.23;100.00;97918.44;4846627;29;21112;-90
2022/11/07 09:38:27;;;;;;;27.40;5.63;;;;;;;12.20;100.00;97903.00;4862669;29;20240;-90
2022/11/07 09:41:31;;;;;;;23.63;4.72;;;;;;;12.21;100.00;97919.69;4877819;29;20110;-89
2022/11/07 09:44:30;;;;;;;25.38;5.60;;;;;;;12.22;100.00;97930.06;4878104;29;20071;-90
2022/11/07 09:47:21;;;;;;;28.10;5.47;;;;;;;12.21;100.00;97925.00;4852498;29;20117;-89
2022/11/07 09:49:55;;;;;;;29.55;5.45;;;;;;;12.26;100.00;97919.88;4878156;29;20048;-90
2022/11/07 09:52:31;;;;;;;26.17;5.03;;;;;;;12.31;100.00;97919.22;4877494;29;20987;-90
2022/11/07 09:55:03;;;;;;;;;;;;;;;12.22;100.00;97924.78;4878230;29;20189;-89
2022/11/07 09:57:34;;;;;;;31.92;6.20;;;;;;;12.30;100.00;97928.16;4862118;29;19920;-89
2022/11/07 10:00:14;;;;;;;30.13;5.28;;;;;;;12.31;100.00;97925.31;4864942;29;20430;-90
2022/11/07 10:02:48;;;;;;;29.08;4.80;;;;;;;12.33;100.00;97923.25;4856863;29;20048;-89
2022/11/07 10:05:53;;;;;;;31.55;5.25;;;;;;;12.38;100.00;97925.25;4867344;29;20041;-89
2022/11/07 10:08:32;;;;;;;28.52;5.20;;;;;;;12.42;100.00;97917.69;4884877;29;20045;-88
2022/11/07 10:11:30;;;;;;;24.45;5.05;;;;;;;12.45;100.00;97933.97;4881999;29;20041;-90
2022/11/07 10:14:17;;;;;;;29.48;5.05;;;;;;;12.45;100.00;97922.53;4855709;29;20089;-89
2022/11/07 10:16:54;;;;;;;30.77;5.35;;;;;;;12.44;100.00;97900.53;4881045;29;20117;-91
2022/11/07 10:19:27;;;;;;;41.15;6.22;;;;;;;12.43;100.00;97916.63;4884061;29;20041;-90
2022/11/07 10:22:22;;;;;;;29.92;5.15;;;;;;;12.38;100.00;97926.06;4910247;29;20031;-88
2022/11/07 10:25:17;;;;;;;32.67;5.60;;;;;;;12.41;100.00;97924.81;4851055;29;20264;-89
2022/11/07 10:27:53;;;;;;;30.95;5.20;;;;;;;12.43;100.00;97919.28;4879623;29;20402;-89
2022/11/07 10:30:23;;;;;;;32.20;5.03;;;;;;;12.42;100.00;97902.59;4869945;29;20040;-89
2022/11/07 10:33:30;;;;;;;24.90;4.00;;;;;;;12.45;100.00;97899.50;4884577;29;20044;-90
2022/11/07 10:36:26;;;;;;;34.40;5.65;;;;;;;12.48;100.00;97901.72;4854244;29;20124;-89
2022/11/07 10:38:55;;;;;;;33.38;4.90;;;;;;;12.55;100.00;97887.59;4860525;29;20512;-89
2022/11/07 10:41:25;;;;;;;26.98;5.45;;;;;;;12.61;100.00;97884.06;4897565;29;20048;-91
2022/11/07 10:43:59;;;;;;;32.25;5.97;;;;;;;12.62;100.00;97873.25;4879861;29;20044;-89
2022/11/07 10:46:39;;;;;;;37.45;5.50;;;;;;;12.69;100.00;97870.53;4894787;29;20029;-89
2022/11/07 10:49:19;;;;;;;35.28;6.80;;;;;;;12.73;100.00;97876.97;4851886;29;20127;-90
2022/11/07 10:51:50;;;;;;;35.92;6.15;;;;;;;12.73;100.00;97861.09;4877063;29;20103;-90
2022/11/07 10:54:20;;;;;;;35.45;6.93;;;;;;;12.76;100.00;97867.75;4891735;29;20100;-89
2022/11/07 10:57:07;;;;;;;38.15;6.88;;;;;;;12.79;100.00;97875.28;4876660;29;20100;-89
2022/11/07 10:59:41;;;;;;;45.53;6.43;;;;;;;12.81;100.00;97872.41;4899473;29;20040;-90
2022/11/07 11:02:21;;;;;;;32.53;6.28;;;;;;;12.81;100.00;97856.50;4899457;29;20043;-88
2022/11/07 11:04:55;;;;;;;44.85;6.78;;;;;;;12.81;100.00;97844.06;4854163;29;20104;-90
2022/11/07 11:07:33;;;;;;;37.05;6.05;;;;;;;12.84;100.00;97859.50;4901157;29;20025;-89
2022/11/07 11:10:16;;;;;;;30.60;5.80;;;;;;;12.84;100.00;97840.13;4852570;29;20040;-90
2022/11/07 11:12:46;;;;;;;35.03;5.13;;;;;;;12.89;100.00;97838.47;4883659;29;20043;-91
2022/11/07 11:15:25;;;;;;;26.73;4.50;;;;;;;12.95;100.00;97842.03;4873614;29;20041;-89
2022/11/07 11:18:01;;;;;;;29.38;5.30;;;;;;;13.00;100.00;97851.97;4883063;29;20040;-90
2022/11/07 11:20:42;;;;;;;30.00;5.35;;;;;;;13.05;100.00;97851.28;4895470;29;20088;-88
2022/11/07 11:23:19;;;;;;;25.80;4.97;;;;;;;13.08;100.00;97850.84;4880669;29;20036;-90
2022/11/07 11:25:51;;;;;;;25.83;5.15;;;;;;;13.11;100.00;97839.78;4874700;29;20092;-90
2022/11/07 11:28:32;;;;;;;28.27;5.40;;;;;;;13.10;100.00;97839.00;4857241;29;20115;-90
2022/11/07 11:31:36;;;;;;;27.35;5.72;;;;;;;13.12;100.00;97834.25;4862863;29;20094;-90
2022/11/07 11:34:19;;;;;;;28.83;4.78;;;;;;;13.20;100.00;97829.69;4864624;29;20114;-88
2022/11/07 11:36:56;;;;;;;27.90;5.53;;;;;;;13.21;100.00;97825.97;4864814;29;20039;-90
2022/11/07 11:39:43;;;;;;;28.25;5.70;;;;;;;13.24;100.00;97806.97;4892418;29;20508;-90
2022/11/07 11:42:51;;;;;;;34.17;7.47;;;;;;;13.26;100.00;97807.56;4876512;29;20044;-89
2022/11/07 11:45:26;;;;;;;36.78;6.95;;;;;;;13.23;100.00;97795.56;4879505;29;20037;-89
2022/11/07 11:48:06;;;;;;;40.40;6.60;;;;;;;13.24;100.00;97786.56;4879725;29;20041;-89
2022/11/07 11:50:48;;;;;;;31.48;6.13;;;;;;;13.18;100.00;97798.09;4869892;29;20040;-89
2022/11/07 11:53:20;;;;;;;27.45;5.13;;;;;;;13.17;100.00;97793.78;4866067;29;20048;-89